sensor_id;sensor_type;location;lat;lon;timestamp;P1;durP1;ratioP1;P2;durP2;ratioP2
60312;SDS011;46158;52.850;6.970;2024-01-30T00:00:07;15.30;;;5.63;;
60312;SDS011;46158;52.850;6.970;2024-01-30T00:02:33;15.32;;;5.30;;
60312;SDS011;46158;52.850;6.970;2024-01-30T00:04:59;15.55;;;5.30;;
60312;SDS011;46158;52.850;6.970;2024-01-30T00:07:24;15.60;;;5.32;;
60312;SDS011;46158;52.850;6.970;2024-01-30T00:09:50;15.13;;;5.47;;
60312;SDS011;46158;52.850;6.970;2024-01-30T00:12:15;15.98;;;5.18;;
60312;SDS011;46158;52.850;6.970;2024-01-30T00:14:41;14.93;;;5.22;;
60312;SDS011;46158;52.850;6.970;2024-01-30T00:17:08;14.20;;;5.32;;
60312;SDS011;46158;52.850;6.970;2024-01-30T00:19:34;14.43;;;5.45;;
60312;SDS011;46158;52.850;6.970;2024-01-30T00:22:00;15.98;;;5.60;;
60312;SDS011;46158;52.850;6.970;2024-01-30T00:24:26;12.57;;;4.90;;
60312;SDS011;46158;52.850;6.970;2024-01-30T00:26:51;14.82;;;5.50;;
60312;SDS011;46158;52.850;6.970;2024-01-30T00:29:17;15.55;;;5.50;;
60312;SDS011;46158;52.850;6.970;2024-01-30T00:31:44;14.82;;;5.57;;
60312;SDS011;46158;52.850;6.970;2024-01-30T00:34:10;16.33;;;5.07;;
60312;SDS011;46158;52.850;6.970;2024-01-30T00:36:36;15.00;;;5.50;;
60312;SDS011;46158;52.850;6.970;2024-01-30T00:39:02;15.10;;;5.43;;
60312;SDS011;46158;52.850;6.970;2024-01-30T00:41:31;15.45;;;5.70;;
60312;SDS011;46158;52.850;6.970;2024-01-30T00:43:57;15.45;;;5.45;;
60312;SDS011;46158;52.850;6.970;2024-01-30T00:46:22;13.55;;;5.00;;
60312;SDS011;46158;52.850;6.970;2024-01-30T00:48:48;15.88;;;5.10;;
60312;SDS011;46158;52.850;6.970;2024-01-30T00:51:14;14.80;;;5.40;;
60312;SDS011;46158;52.850;6.970;2024-01-30T00:53:40;15.05;;;5.20;;
60312;SDS011;46158;52.850;6.970;2024-01-30T00:56:06;15.32;;;5.40;;
60312;SDS011;46158;52.850;6.970;2024-01-30T00:58:33;13.52;;;5.07;;
60312;SDS011;46158;52.850;6.970;2024-01-30T01:00:58;14.13;;;5.35;;
60312;SDS011;46158;52.850;6.970;2024-01-30T01:03:24;15.68;;;5.45;;
60312;SDS011;46158;52.850;6.970;2024-01-30T01:05:49;15.00;;;5.70;;
60312;SDS011;46158;52.850;6.970;2024-01-30T01:08:15;13.10;;;4.90;;
60312;SDS011;46158;52.850;6.970;2024-01-30T01:10:41;16.30;;;5.47;;
60312;SDS011;46158;52.850;6.970;2024-01-30T01:13:06;14.48;;;5.18;;
60312;SDS011;46158;52.850;6.970;2024-01-30T01:15:32;14.90;;;5.00;;
60312;SDS011;46158;52.850;6.970;2024-01-30T01:17:57;13.07;;;5.10;;
60312;SDS011;46158;52.850;6.970;2024-01-30T01:20:23;15.80;;;5.07;;
60312;SDS011;46158;52.850;6.970;2024-01-30T01:22:48;14.63;;;5.15;;
60312;SDS011;46158;52.850;6.970;2024-01-30T01:25:14;16.30;;;5.43;;
60312;SDS011;46158;52.850;6.970;2024-01-30T01:27:40;14.55;;;5.20;;
60312;SDS011;46158;52.850;6.970;2024-01-30T01:30:10;13.00;;;4.80;;
60312;SDS011;46158;52.850;6.970;2024-01-30T01:32:36;15.23;;;5.25;;
60312;SDS011;46158;52.850;6.970;2024-01-30T01:35:03;14.20;;;5.00;;
60312;SDS011;46158;52.850;6.970;2024-01-30T01:37:30;13.32;;;4.80;;
60312;SDS011;46158;52.850;6.970;2024-01-30T01:39:56;13.63;;;5.18;;
60312;SDS011;46158;52.850;6.970;2024-01-30T01:42:21;13.02;;;5.25;;
60312;SDS011;46158;52.850;6.970;2024-01-30T01:44:47;14.27;;;5.00;;
60312;SDS011;46158;52.850;6.970;2024-01-30T01:47:13;14.23;;;5.13;;
60312;SDS011;46158;52.850;6.970;2024-01-30T01:49:40;14.77;;;5.20;;
60312;SDS011;46158;52.850;6.970;2024-01-30T01:52:06;13.45;;;5.03;;
60312;SDS011;46158;52.850;6.970;2024-01-30T01:54:32;12.93;;;4.82;;
60312;SDS011;46158;52.850;6.970;2024-01-30T01:56:58;14.48;;;5.13;;
60312;SDS011;46158;52.850;6.970;2024-01-30T01:59:24;14.98;;;5.47;;
60312;SDS011;46158;52.850;6.970;2024-01-30T02:01:50;12.43;;;4.85;;
60312;SDS011;46158;52.850;6.970;2024-01-30T02:04:18;13.65;;;5.25;;
60312;SDS011;46158;52.850;6.970;2024-01-30T02:06:43;12.70;;;5.10;;
60312;SDS011;46158;52.850;6.970;2024-01-30T02:09:09;16.10;;;5.20;;
60312;SDS011;46158;52.850;6.970;2024-01-30T02:11:35;13.38;;;5.03;;
60312;SDS011;46158;52.850;6.970;2024-01-30T02:14:04;15.13;;;5.32;;
60312;SDS011;46158;52.850;6.970;2024-01-30T02:16:30;12.63;;;4.80;;
60312;SDS011;46158;52.850;6.970;2024-01-30T02:18:56;15.00;;;5.35;;
60312;SDS011;46158;52.850;6.970;2024-01-30T02:21:22;12.15;;;4.75;;
60312;SDS011;46158;52.850;6.970;2024-01-30T02:23:47;15.65;;;5.32;;
60312;SDS011;46158;52.850;6.970;2024-01-30T02:26:14;13.25;;;5.20;;
60312;SDS011;46158;52.850;6.970;2024-01-30T02:28:39;14.63;;;5.38;;
60312;SDS011;46158;52.850;6.970;2024-01-30T02:31:05;14.38;;;5.32;;
60312;SDS011;46158;52.850;6.970;2024-01-30T02:33:31;13.88;;;5.30;;
60312;SDS011;46158;52.850;6.970;2024-01-30T02:35:57;12.60;;;4.75;;
60312;SDS011;46158;52.850;6.970;2024-01-30T02:38:23;12.88;;;4.90;;
60312;SDS011;46158;52.850;6.970;2024-01-30T02:40:49;12.48;;;4.97;;
60312;SDS011;46158;52.850;6.970;2024-01-30T02:43:15;13.10;;;5.22;;
60312;SDS011;46158;52.850;6.970;2024-01-30T02:45:41;11.25;;;4.70;;
60312;SDS011;46158;52.850;6.970;2024-01-30T02:48:07;14.60;;;4.88;;
60312;SDS011;46158;52.850;6.970;2024-01-30T02:50:33;11.98;;;4.57;;
60312;SDS011;46158;52.850;6.970;2024-01-30T02:52:58;12.55;;;4.85;;
60312;SDS011;46158;52.850;6.970;2024-01-30T02:55:24;13.38;;;4.75;;
60312;SDS011;46158;52.850;6.970;2024-01-30T02:57:49;15.65;;;5.20;;
60312;SDS011;46158;52.850;6.970;2024-01-30T03:00:15;13.38;;;5.05;;
60312;SDS011;46158;52.850;6.970;2024-01-30T03:02:41;10.65;;;4.40;;
60312;SDS011;46158;52.850;6.970;2024-01-30T03:05:07;14.55;;;5.05;;
60312;SDS011;46158;52.850;6.970;2024-01-30T03:07:33;13.10;;;4.88;;
60312;SDS011;46158;52.850;6.970;2024-01-30T03:09:59;13.45;;;4.85;;
60312;SDS011;46158;52.850;6.970;2024-01-30T03:12:24;14.32;;;4.80;;
60312;SDS011;46158;52.850;6.970;2024-01-30T03:14:50;12.52;;;5.22;;
60312;SDS011;46158;52.850;6.970;2024-01-30T03:17:15;12.10;;;4.70;;
60312;SDS011;46158;52.850;6.970;2024-01-30T03:19:41;14.70;;;5.00;;
60312;SDS011;46158;52.850;6.970;2024-01-30T03:22:07;14.43;;;5.05;;
60312;SDS011;46158;52.850;6.970;2024-01-30T03:24:32;14.20;;;5.28;;
60312;SDS011;46158;52.850;6.970;2024-01-30T03:26:58;12.38;;;5.05;;
60312;SDS011;46158;52.850;6.970;2024-01-30T03:29:24;15.27;;;4.80;;
60312;SDS011;46158;52.850;6.970;2024-01-30T03:31:49;14.32;;;5.30;;
60312;SDS011;46158;52.850;6.970;2024-01-30T03:34:15;13.10;;;4.70;;
60312;SDS011;46158;52.850;6.970;2024-01-30T03:36:40;14.80;;;5.10;;
60312;SDS011;46158;52.850;6.970;2024-01-30T03:39:06;15.25;;;5.07;;
60312;SDS011;46158;52.850;6.970;2024-01-30T03:41:32;13.63;;;4.90;;
60312;SDS011;46158;52.850;6.970;2024-01-30T03:43:57;12.27;;;4.60;;
60312;SDS011;46158;52.850;6.970;2024-01-30T03:46:23;15.07;;;5.30;;
60312;SDS011;46158;52.850;6.970;2024-01-30T03:48:49;13.23;;;5.03;;
60312;SDS011;46158;52.850;6.970;2024-01-30T03:51:15;14.30;;;5.38;;
60312;SDS011;46158;52.850;6.970;2024-01-30T03:53:41;13.93;;;5.25;;
60312;SDS011;46158;52.850;6.970;2024-01-30T03:56:08;14.73;;;5.28;;
60312;SDS011;46158;52.850;6.970;2024-01-30T03:58:34;12.77;;;4.82;;
60312;SDS011;46158;52.850;6.970;2024-01-30T04:01:00;13.88;;;4.90;;
60312;SDS011;46158;52.850;6.970;2024-01-30T04:03:25;13.15;;;5.03;;
60312;SDS011;46158;52.850;6.970;2024-01-30T04:05:51;14.45;;;5.07;;
60312;SDS011;46158;52.850;6.970;2024-01-30T04:08:18;14.35;;;4.90;;
60312;SDS011;46158;52.850;6.970;2024-01-30T04:10:43;12.77;;;4.90;;
60312;SDS011;46158;52.850;6.970;2024-01-30T04:13:09;14.50;;;4.78;;
60312;SDS011;46158;52.850;6.970;2024-01-30T04:15:35;13.38;;;5.10;;
60312;SDS011;46158;52.850;6.970;2024-01-30T04:18:00;13.65;;;4.97;;
60312;SDS011;46158;52.850;6.970;2024-01-30T04:20:26;13.98;;;5.03;;
60312;SDS011;46158;52.850;6.970;2024-01-30T04:22:52;14.18;;;5.20;;
60312;SDS011;46158;52.850;6.970;2024-01-30T04:25:17;11.38;;;4.70;;
60312;SDS011;46158;52.850;6.970;2024-01-30T04:27:43;14.43;;;5.10;;
60312;SDS011;46158;52.850;6.970;2024-01-30T04:30:09;16.17;;;5.38;;
60312;SDS011;46158;52.850;6.970;2024-01-30T04:32:35;15.20;;;5.30;;
60312;SDS011;46158;52.850;6.970;2024-01-30T04:35:01;13.48;;;5.20;;
60312;SDS011;46158;52.850;6.970;2024-01-30T04:37:27;14.65;;;5.05;;
60312;SDS011;46158;52.850;6.970;2024-01-30T04:39:53;14.75;;;5.25;;
60312;SDS011;46158;52.850;6.970;2024-01-30T04:42:18;13.60;;;5.05;;
60312;SDS011;46158;52.850;6.970;2024-01-30T04:44:44;16.20;;;5.35;;
60312;SDS011;46158;52.850;6.970;2024-01-30T04:47:10;14.10;;;4.95;;
60312;SDS011;46158;52.850;6.970;2024-01-30T04:49:39;13.30;;;4.88;;
60312;SDS011;46158;52.850;6.970;2024-01-30T04:52:06;14.35;;;4.68;;
60312;SDS011;46158;52.850;6.970;2024-01-30T04:54:32;13.88;;;5.25;;
60312;SDS011;46158;52.850;6.970;2024-01-30T04:56:58;13.60;;;4.85;;
60312;SDS011;46158;52.850;6.970;2024-01-30T04:59:24;12.65;;;4.78;;
60312;SDS011;46158;52.850;6.970;2024-01-30T05:01:49;12.32;;;4.68;;
60312;SDS011;46158;52.850;6.970;2024-01-30T05:04:15;14.57;;;5.07;;
60312;SDS011;46158;52.850;6.970;2024-01-30T05:06:41;10.32;;;4.68;;
60312;SDS011;46158;52.850;6.970;2024-01-30T05:09:06;14.15;;;5.00;;
60312;SDS011;46158;52.850;6.970;2024-01-30T05:11:36;15.35;;;5.03;;
60312;SDS011;46158;52.850;6.970;2024-01-30T05:14:03;13.38;;;4.78;;
60312;SDS011;46158;52.850;6.970;2024-01-30T05:16:28;13.63;;;4.63;;
60312;SDS011;46158;52.850;6.970;2024-01-30T05:18:54;14.57;;;4.88;;
60312;SDS011;46158;52.850;6.970;2024-01-30T05:21:20;11.60;;;4.70;;
60312;SDS011;46158;52.850;6.970;2024-01-30T05:23:45;12.95;;;4.70;;
60312;SDS011;46158;52.850;6.970;2024-01-30T05:26:11;12.63;;;5.10;;
60312;SDS011;46158;52.850;6.970;2024-01-30T05:28:36;15.05;;;5.35;;
60312;SDS011;46158;52.850;6.970;2024-01-30T05:31:02;12.02;;;4.53;;
60312;SDS011;46158;52.850;6.970;2024-01-30T05:33:28;12.95;;;4.85;;
60312;SDS011;46158;52.850;6.970;2024-01-30T05:35:53;13.90;;;5.00;;
60312;SDS011;46158;52.850;6.970;2024-01-30T05:38:22;14.27;;;5.07;;
60312;SDS011;46158;52.850;6.970;2024-01-30T05:40:47;15.77;;;4.80;;
60312;SDS011;46158;52.850;6.970;2024-01-30T05:43:13;14.50;;;5.40;;
60312;SDS011;46158;52.850;6.970;2024-01-30T05:45:39;14.55;;;5.20;;
60312;SDS011;46158;52.850;6.970;2024-01-30T05:48:04;14.13;;;4.90;;
60312;SDS011;46158;52.850;6.970;2024-01-30T05:50:30;14.27;;;5.10;;
60312;SDS011;46158;52.850;6.970;2024-01-30T05:52:56;13.18;;;4.68;;
60312;SDS011;46158;52.850;6.970;2024-01-30T05:55:22;12.45;;;4.63;;
60312;SDS011;46158;52.850;6.970;2024-01-30T05:57:47;15.52;;;5.45;;
60312;SDS011;46158;52.850;6.970;2024-01-30T06:00:13;14.68;;;5.10;;
60312;SDS011;46158;52.850;6.970;2024-01-30T06:02:39;12.32;;;4.80;;
60312;SDS011;46158;52.850;6.970;2024-01-30T06:05:05;13.48;;;4.80;;
60312;SDS011;46158;52.850;6.970;2024-01-30T06:07:31;13.38;;;4.93;;
60312;SDS011;46158;52.850;6.970;2024-01-30T06:09:56;14.05;;;4.85;;
60312;SDS011;46158;52.850;6.970;2024-01-30T06:12:22;13.50;;;4.80;;
60312;SDS011;46158;52.850;6.970;2024-01-30T06:14:48;13.05;;;4.78;;
60312;SDS011;46158;52.850;6.970;2024-01-30T06:17:13;14.52;;;5.07;;
60312;SDS011;46158;52.850;6.970;2024-01-30T06:19:39;16.33;;;5.28;;
60312;SDS011;46158;52.850;6.970;2024-01-30T06:22:05;13.18;;;4.80;;
60312;SDS011;46158;52.850;6.970;2024-01-30T06:24:30;14.15;;;4.82;;
60312;SDS011;46158;52.850;6.970;2024-01-30T06:26:56;14.82;;;5.35;;
60312;SDS011;46158;52.850;6.970;2024-01-30T06:29:22;20.80;;;6.50;;
60312;SDS011;46158;52.850;6.970;2024-01-30T06:31:49;19.98;;;6.00;;
60312;SDS011;46158;52.850;6.970;2024-01-30T06:34:15;21.17;;;6.90;;
60312;SDS011;46158;52.850;6.970;2024-01-30T06:36:41;24.10;;;7.47;;
60312;SDS011;46158;52.850;6.970;2024-01-30T06:39:07;22.95;;;6.95;;
60312;SDS011;46158;52.850;6.970;2024-01-30T06:41:32;23.23;;;7.60;;
60312;SDS011;46158;52.850;6.970;2024-01-30T06:43:58;22.75;;;7.20;;
60312;SDS011;46158;52.850;6.970;2024-01-30T06:46:24;23.55;;;7.65;;
60312;SDS011;46158;52.850;6.970;2024-01-30T06:48:50;24.73;;;8.30;;
60312;SDS011;46158;52.850;6.970;2024-01-30T06:51:15;22.52;;;6.80;;
60312;SDS011;46158;52.850;6.970;2024-01-30T06:53:41;23.75;;;7.38;;
60312;SDS011;46158;52.850;6.970;2024-01-30T06:56:06;21.45;;;7.00;;
60312;SDS011;46158;52.850;6.970;2024-01-30T06:58:32;21.30;;;6.75;;
60312;SDS011;46158;52.850;6.970;2024-01-30T07:00:58;24.63;;;6.75;;
60312;SDS011;46158;52.850;6.970;2024-01-30T07:03:24;24.73;;;7.60;;
60312;SDS011;46158;52.850;6.970;2024-01-30T07:05:49;22.48;;;7.30;;
60312;SDS011;46158;52.850;6.970;2024-01-30T07:08:18;19.90;;;6.88;;
60312;SDS011;46158;52.850;6.970;2024-01-30T07:10:44;21.30;;;6.55;;
60312;SDS011;46158;52.850;6.970;2024-01-30T07:13:10;21.38;;;6.30;;
60312;SDS011;46158;52.850;6.970;2024-01-30T07:15:38;19.92;;;6.28;;
60312;SDS011;46158;52.850;6.970;2024-01-30T07:18:05;20.80;;;6.68;;
60312;SDS011;46158;52.850;6.970;2024-01-30T07:20:31;19.65;;;6.30;;
60312;SDS011;46158;52.850;6.970;2024-01-30T07:23:00;20.85;;;6.68;;
60312;SDS011;46158;52.850;6.970;2024-01-30T07:25:26;19.55;;;6.38;;
60312;SDS011;46158;52.850;6.970;2024-01-30T07:27:55;18.25;;;6.05;;
60312;SDS011;46158;52.850;6.970;2024-01-30T07:30:21;18.17;;;5.97;;
60312;SDS011;46158;52.850;6.970;2024-01-30T07:32:48;18.80;;;5.88;;
60312;SDS011;46158;52.850;6.970;2024-01-30T07:35:14;17.98;;;6.40;;
60312;SDS011;46158;52.850;6.970;2024-01-30T07:37:39;18.20;;;6.15;;
60312;SDS011;46158;52.850;6.970;2024-01-30T07:40:05;20.33;;;6.10;;
60312;SDS011;46158;52.850;6.970;2024-01-30T07:42:31;18.70;;;6.00;;
60312;SDS011;46158;52.850;6.970;2024-01-30T07:44:58;19.10;;;6.20;;
60312;SDS011;46158;52.850;6.970;2024-01-30T07:47:24;17.52;;;5.55;;
60312;SDS011;46158;52.850;6.970;2024-01-30T07:49:49;19.88;;;5.93;;
60312;SDS011;46158;52.850;6.970;2024-01-30T07:52:22;20.70;;;6.50;;
60312;SDS011;46158;52.850;6.970;2024-01-30T07:54:48;17.70;;;5.63;;
60312;SDS011;46158;52.850;6.970;2024-01-30T07:57:14;19.83;;;5.93;;
60312;SDS011;46158;52.850;6.970;2024-01-30T07:59:41;17.20;;;5.43;;
60312;SDS011;46158;52.850;6.970;2024-01-30T08:02:09;17.77;;;5.90;;
60312;SDS011;46158;52.850;6.970;2024-01-30T08:04:35;16.90;;;5.50;;
60312;SDS011;46158;52.850;6.970;2024-01-30T08:07:00;15.98;;;5.35;;
60312;SDS011;46158;52.850;6.970;2024-01-30T08:09:26;17.42;;;5.65;;
60312;SDS011;46158;52.850;6.970;2024-01-30T08:11:52;17.77;;;5.53;;
60312;SDS011;46158;52.850;6.970;2024-01-30T08:14:18;17.75;;;5.88;;
60312;SDS011;46158;52.850;6.970;2024-01-30T08:16:43;17.52;;;6.05;;
60312;SDS011;46158;52.850;6.970;2024-01-30T08:19:09;18.25;;;5.47;;
60312;SDS011;46158;52.850;6.970;2024-01-30T08:21:34;17.67;;;5.18;;
60312;SDS011;46158;52.850;6.970;2024-01-30T08:24:04;15.93;;;5.10;;
60312;SDS011;46158;52.850;6.970;2024-01-30T08:26:31;18.08;;;5.68;;
60312;SDS011;46158;52.850;6.970;2024-01-30T08:28:57;15.45;;;5.28;;
60312;SDS011;46158;52.850;6.970;2024-01-30T08:31:23;16.88;;;5.28;;
60312;SDS011;46158;52.850;6.970;2024-01-30T08:33:49;16.05;;;5.13;;
60312;SDS011;46158;52.850;6.970;2024-01-30T08:36:15;17.55;;;6.25;;
60312;SDS011;46158;52.850;6.970;2024-01-30T08:38:41;18.25;;;5.95;;
60312;SDS011;46158;52.850;6.970;2024-01-30T08:41:07;18.33;;;5.35;;
60312;SDS011;46158;52.850;6.970;2024-01-30T08:43:33;15.35;;;5.32;;
60312;SDS011;46158;52.850;6.970;2024-01-30T08:45:59;15.15;;;5.00;;
60312;SDS011;46158;52.850;6.970;2024-01-30T08:48:25;16.70;;;5.15;;
60312;SDS011;46158;52.850;6.970;2024-01-30T08:50:51;16.98;;;5.38;;
60312;SDS011;46158;52.850;6.970;2024-01-30T08:53:16;14.82;;;5.20;;
60312;SDS011;46158;52.850;6.970;2024-01-30T08:55:42;16.58;;;5.20;;
60312;SDS011;46158;52.850;6.970;2024-01-30T08:58:08;16.55;;;5.03;;
60312;SDS011;46158;52.850;6.970;2024-01-30T09:00:33;15.75;;;4.80;;
60312;SDS011;46158;52.850;6.970;2024-01-30T09:02:59;13.50;;;4.88;;
60312;SDS011;46158;52.850;6.970;2024-01-30T09:05:24;17.98;;;5.50;;
60312;SDS011;46158;52.850;6.970;2024-01-30T09:07:50;18.27;;;5.22;;
60312;SDS011;46158;52.850;6.970;2024-01-30T09:10:16;16.55;;;5.28;;
60312;SDS011;46158;52.850;6.970;2024-01-30T09:12:41;14.07;;;4.72;;
60312;SDS011;46158;52.850;6.970;2024-01-30T09:15:07;15.18;;;5.18;;
60312;SDS011;46158;52.850;6.970;2024-01-30T09:17:33;15.30;;;4.90;;
60312;SDS011;46158;52.850;6.970;2024-01-30T09:19:59;16.08;;;5.20;;
60312;SDS011;46158;52.850;6.970;2024-01-30T09:22:26;15.02;;;5.07;;
60312;SDS011;46158;52.850;6.970;2024-01-30T09:24:51;16.35;;;4.90;;
60312;SDS011;46158;52.850;6.970;2024-01-30T09:27:17;14.27;;;5.00;;
60312;SDS011;46158;52.850;6.970;2024-01-30T09:29:42;13.07;;;4.40;;
60312;SDS011;46158;52.850;6.970;2024-01-30T09:32:08;14.07;;;4.65;;
60312;SDS011;46158;52.850;6.970;2024-01-30T09:34:34;13.45;;;4.90;;
60312;SDS011;46158;52.850;6.970;2024-01-30T09:36:59;12.48;;;4.50;;
60312;SDS011;46158;52.850;6.970;2024-01-30T09:39:26;12.13;;;4.40;;
60312;SDS011;46158;52.850;6.970;2024-01-30T09:41:55;13.25;;;4.55;;
60312;SDS011;46158;52.850;6.970;2024-01-30T09:44:28;14.05;;;4.70;;
60312;SDS011;46158;52.850;6.970;2024-01-30T09:46:55;15.45;;;4.90;;
60312;SDS011;46158;52.850;6.970;2024-01-30T09:49:23;13.80;;;4.70;;
60312;SDS011;46158;52.850;6.970;2024-01-30T09:51:50;15.18;;;4.60;;
60312;SDS011;46158;52.850;6.970;2024-01-30T09:54:18;11.15;;;4.32;;
60312;SDS011;46158;52.850;6.970;2024-01-30T09:56:44;12.15;;;4.25;;
60312;SDS011;46158;52.850;6.970;2024-01-30T09:59:10;13.02;;;4.82;;
60312;SDS011;46158;52.850;6.970;2024-01-30T10:01:36;15.63;;;4.50;;
60312;SDS011;46158;52.850;6.970;2024-01-30T10:04:01;12.65;;;4.55;;
60312;SDS011;46158;52.850;6.970;2024-01-30T10:06:27;13.25;;;4.70;;
60312;SDS011;46158;52.850;6.970;2024-01-30T10:08:53;14.55;;;5.03;;
60312;SDS011;46158;52.850;6.970;2024-01-30T10:11:19;12.35;;;4.32;;
60312;SDS011;46158;52.850;6.970;2024-01-30T10:13:45;13.30;;;4.65;;
60312;SDS011;46158;52.850;6.970;2024-01-30T10:16:13;12.93;;;4.45;;
60312;SDS011;46158;52.850;6.970;2024-01-30T10:18:40;13.95;;;4.70;;
60312;SDS011;46158;52.850;6.970;2024-01-30T10:21:06;15.00;;;4.60;;
60312;SDS011;46158;52.850;6.970;2024-01-30T10:23:33;13.27;;;4.68;;
60312;SDS011;46158;52.850;6.970;2024-01-30T10:25:59;11.95;;;4.43;;
60312;SDS011;46158;52.850;6.970;2024-01-30T10:28:27;13.38;;;4.43;;
60312;SDS011;46158;52.850;6.970;2024-01-30T10:30:58;13.32;;;4.60;;
60312;SDS011;46158;52.850;6.970;2024-01-30T10:33:25;13.60;;;4.93;;
60312;SDS011;46158;52.850;6.970;2024-01-30T10:35:52;13.43;;;4.70;;
60312;SDS011;46158;52.850;6.970;2024-01-30T10:38:28;12.77;;;4.28;;
60312;SDS011;46158;52.850;6.970;2024-01-30T10:40:58;12.05;;;4.63;;
60312;SDS011;46158;52.850;6.970;2024-01-30T10:43:30;11.68;;;4.30;;
60312;SDS011;46158;52.850;6.970;2024-01-30T10:46:18;12.25;;;4.40;;
60312;SDS011;46158;52.850;6.970;2024-01-30T10:48:46;13.27;;;4.80;;
60312;SDS011;46158;52.850;6.970;2024-01-30T10:51:19;12.13;;;4.35;;
60312;SDS011;46158;52.850;6.970;2024-01-30T10:53:47;12.23;;;4.20;;
60312;SDS011;46158;52.850;6.970;2024-01-30T10:56:16;12.52;;;4.20;;
60312;SDS011;46158;52.850;6.970;2024-01-30T10:58:42;11.85;;;4.45;;
60312;SDS011;46158;52.850;6.970;2024-01-30T11:01:07;13.43;;;4.60;;
60312;SDS011;46158;52.850;6.970;2024-01-30T11:03:34;10.90;;;4.18;;
60312;SDS011;46158;52.850;6.970;2024-01-30T11:06:02;10.70;;;4.20;;
60312;SDS011;46158;52.850;6.970;2024-01-30T11:08:28;10.40;;;4.03;;
60312;SDS011;46158;52.850;6.970;2024-01-30T11:10:57;11.70;;;4.20;;
60312;SDS011;46158;52.850;6.970;2024-01-30T11:13:29;14.10;;;4.63;;
60312;SDS011;46158;52.850;6.970;2024-01-30T11:15:59;11.55;;;4.47;;
60312;SDS011;46158;52.850;6.970;2024-01-30T11:18:28;12.73;;;4.55;;
60312;SDS011;46158;52.850;6.970;2024-01-30T11:20:57;13.48;;;4.63;;
60312;SDS011;46158;52.850;6.970;2024-01-30T11:23:29;11.77;;;4.25;;
60312;SDS011;46158;52.850;6.970;2024-01-30T11:25:56;12.68;;;4.25;;
60312;SDS011;46158;52.850;6.970;2024-01-30T11:28:22;11.93;;;4.25;;
60312;SDS011;46158;52.850;6.970;2024-01-30T11:30:48;10.63;;;3.80;;
60312;SDS011;46158;52.850;6.970;2024-01-30T11:33:16;12.70;;;4.10;;
60312;SDS011;46158;52.850;6.970;2024-01-30T11:35:56;12.50;;;4.05;;
60312;SDS011;46158;52.850;6.970;2024-01-30T11:38:24;10.77;;;4.18;;
60312;SDS011;46158;52.850;6.970;2024-01-30T11:40:52;13.27;;;4.07;;
60312;SDS011;46158;52.850;6.970;2024-01-30T11:43:19;12.60;;;4.20;;
60312;SDS011;46158;52.850;6.970;2024-01-30T11:45:45;12.48;;;4.30;;
60312;SDS011;46158;52.850;6.970;2024-01-30T11:48:11;12.02;;;4.00;;
60312;SDS011;46158;52.850;6.970;2024-01-30T11:50:37;9.98;;;3.80;;
60312;SDS011;46158;52.850;6.970;2024-01-30T11:53:04;13.02;;;4.72;;
60312;SDS011;46158;52.850;6.970;2024-01-30T11:55:30;12.18;;;4.03;;
60312;SDS011;46158;52.850;6.970;2024-01-30T11:57:59;11.60;;;4.20;;
60312;SDS011;46158;52.850;6.970;2024-01-30T12:00:25;11.27;;;4.22;;
60312;SDS011;46158;52.850;6.970;2024-01-30T12:02:51;11.35;;;4.10;;
60312;SDS011;46158;52.850;6.970;2024-01-30T12:05:21;11.88;;;4.40;;
60312;SDS011;46158;52.850;6.970;2024-01-30T12:07:47;12.63;;;4.03;;
60312;SDS011;46158;52.850;6.970;2024-01-30T12:10:13;11.57;;;3.90;;
60312;SDS011;46158;52.850;6.970;2024-01-30T12:12:40;12.10;;;4.28;;
60312;SDS011;46158;52.850;6.970;2024-01-30T12:15:08;12.80;;;4.20;;
60312;SDS011;46158;52.850;6.970;2024-01-30T12:17:34;14.35;;;5.05;;
60312;SDS011;46158;52.850;6.970;2024-01-30T12:20:07;12.98;;;4.10;;
60312;SDS011;46158;52.850;6.970;2024-01-30T12:22:37;13.07;;;4.00;;
60312;SDS011;46158;52.850;6.970;2024-01-30T12:25:08;9.93;;;3.95;;
60312;SDS011;46158;52.850;6.970;2024-01-30T12:27:44;10.73;;;3.97;;
60312;SDS011;46158;52.850;6.970;2024-01-30T12:30:14;10.73;;;4.00;;
60312;SDS011;46158;52.850;6.970;2024-01-30T12:32:40;12.27;;;4.60;;
60312;SDS011;46158;52.850;6.970;2024-01-30T12:35:16;12.43;;;4.22;;
60312;SDS011;46158;52.850;6.970;2024-01-30T12:37:44;11.65;;;4.07;;
60312;SDS011;46158;52.850;6.970;2024-01-30T12:40:11;12.82;;;4.15;;
60312;SDS011;46158;52.850;6.970;2024-01-30T12:42:39;11.23;;;4.13;;
60312;SDS011;46158;52.850;6.970;2024-01-30T12:45:07;12.52;;;4.15;;
60312;SDS011;46158;52.850;6.970;2024-01-30T12:47:33;12.82;;;4.18;;
60312;SDS011;46158;52.850;6.970;2024-01-30T12:49:58;13.77;;;4.20;;
60312;SDS011;46158;52.850;6.970;2024-01-30T12:52:24;11.57;;;4.43;;
60312;SDS011;46158;52.850;6.970;2024-01-30T12:54:50;11.43;;;4.18;;
60312;SDS011;46158;52.850;6.970;2024-01-30T12:57:16;11.68;;;4.30;;
60312;SDS011;46158;52.850;6.970;2024-01-30T12:59:45;11.27;;;4.25;;
60312;SDS011;46158;52.850;6.970;2024-01-30T13:02:12;12.85;;;4.30;;
60312;SDS011;46158;52.850;6.970;2024-01-30T13:04:38;13.82;;;4.40;;
60312;SDS011;46158;52.850;6.970;2024-01-30T13:07:04;10.85;;;4.05;;
60312;SDS011;46158;52.850;6.970;2024-01-30T13:09:30;13.20;;;4.25;;
60312;SDS011;46158;52.850;6.970;2024-01-30T13:11:56;9.48;;;3.72;;
60312;SDS011;46158;52.850;6.970;2024-01-30T13:14:23;12.05;;;4.20;;
60312;SDS011;46158;52.850;6.970;2024-01-30T13:16:49;11.20;;;4.13;;
60312;SDS011;46158;52.850;6.970;2024-01-30T13:19:15;11.73;;;4.10;;
60312;SDS011;46158;52.850;6.970;2024-01-30T13:21:41;12.60;;;4.07;;
60312;SDS011;46158;52.850;6.970;2024-01-30T13:24:07;10.77;;;4.00;;
60312;SDS011;46158;52.850;6.970;2024-01-30T13:26:33;11.93;;;4.30;;
60312;SDS011;46158;52.850;6.970;2024-01-30T13:28:59;13.50;;;4.10;;
60312;SDS011;46158;52.850;6.970;2024-01-30T13:31:25;13.43;;;4.30;;
60312;SDS011;46158;52.850;6.970;2024-01-30T13:33:52;11.93;;;4.30;;
60312;SDS011;46158;52.850;6.970;2024-01-30T13:36:18;11.50;;;4.10;;
60312;SDS011;46158;52.850;6.970;2024-01-30T13:38:43;10.07;;;4.00;;
60312;SDS011;46158;52.850;6.970;2024-01-30T13:41:09;10.80;;;4.05;;
60312;SDS011;46158;52.850;6.970;2024-01-30T13:43:34;9.55;;;3.63;;
60312;SDS011;46158;52.850;6.970;2024-01-30T13:46:00;13.48;;;4.30;;
60312;SDS011;46158;52.850;6.970;2024-01-30T13:48:26;11.32;;;4.07;;
60312;SDS011;46158;52.850;6.970;2024-01-30T13:50:52;9.48;;;3.92;;
60312;SDS011;46158;52.850;6.970;2024-01-30T13:53:18;9.57;;;3.65;;
60312;SDS011;46158;52.850;6.970;2024-01-30T13:55:43;10.25;;;3.92;;
60312;SDS011;46158;52.850;6.970;2024-01-30T13:58:09;10.15;;;3.65;;
60312;SDS011;46158;52.850;6.970;2024-01-30T14:00:35;13.02;;;4.10;;
60312;SDS011;46158;52.850;6.970;2024-01-30T14:03:00;9.18;;;3.70;;
60312;SDS011;46158;52.850;6.970;2024-01-30T14:05:26;8.38;;;3.60;;
60312;SDS011;46158;52.850;6.970;2024-01-30T14:07:55;7.93;;;3.60;;
60312;SDS011;46158;52.850;6.970;2024-01-30T14:10:22;11.13;;;3.83;;
60312;SDS011;46158;52.850;6.970;2024-01-30T14:12:48;11.70;;;4.00;;
60312;SDS011;46158;52.850;6.970;2024-01-30T14:15:14;12.00;;;3.63;;
60312;SDS011;46158;52.850;6.970;2024-01-30T14:17:40;7.95;;;3.20;;
60312;SDS011;46158;52.850;6.970;2024-01-30T14:20:06;10.27;;;3.28;;
60312;SDS011;46158;52.850;6.970;2024-01-30T14:22:33;8.90;;;3.38;;
60312;SDS011;46158;52.850;6.970;2024-01-30T14:25:00;10.63;;;3.60;;
60312;SDS011;46158;52.850;6.970;2024-01-30T14:27:28;10.00;;;3.40;;
60312;SDS011;46158;52.850;6.970;2024-01-30T14:29:53;9.07;;;3.80;;